createdAt,value
2018-02-22T00:00:37.761Z,54.23
2018-02-22T00:03:05.169Z,49.20
2018-02-22T00:05:32.593Z,57.72
2018-02-22T00:08:00.000Z,45.17
2018-02-22T00:10:27.426Z,51.43
2018-02-22T00:12:54.833Z,44.23
2018-02-22T00:15:22.254Z,48.83
2018-02-22T00:17:49.661Z,52.57
2018-02-22T00:20:17.081Z,52.38
2018-02-22T00:22:44.500Z,51.70
2018-02-22T00:25:11.917Z,61.97
2018-02-22T00:27:39.325Z,55.50
2018-02-22T00:30:06.745Z,53.00
2018-02-22T00:32:34.153Z,58.70
2018-02-22T00:35:01.569Z,52.10
2018-02-22T00:37:28.979Z,53.63
2018-02-22T00:39:56.394Z,50.33
2018-02-22T00:42:24.750Z,55.50
2018-02-22T00:44:52.168Z,57.30
2018-02-22T00:47:19.579Z,50.65
2018-02-22T00:49:47.780Z,51.37
2018-02-22T00:52:15.185Z,55.97
2018-02-22T00:54:42.609Z,55.67
2018-02-22T00:57:10.017Z,50.60
2018-02-22T00:59:37.437Z,57.97
2018-02-22T01:02:04.857Z,50.73
2018-02-22T01:04:32.285Z,53.63
2018-02-22T01:06:59.693Z,54.47
2018-02-22T01:09:27.118Z,53.80
2018-02-22T01:11:55.569Z,51.37
2018-02-22T01:14:22.996Z,49.23
2018-02-22T01:16:50.405Z,59.03
2018-02-22T01:19:17.818Z,62.40
2018-02-22T01:21:45.239Z,57.63
2018-02-22T01:24:12.650Z,63.20
2018-02-22T01:26:40.079Z,49.50
2018-02-22T01:29:07.481Z,53.83
2018-02-22T01:31:34.897Z,48.25
2018-02-22T01:34:02.306Z,55.27
2018-02-22T01:36:29.720Z,50.83
2018-02-22T01:38:57.136Z,46.30
2018-02-22T01:41:24.561Z,52.70
2018-02-22T01:43:51.974Z,41.60
2018-02-22T01:46:19.397Z,54.28
2018-02-22T01:48:46.805Z,46.53
2018-02-22T01:51:14.230Z,46.40
2018-02-22T01:53:41.645Z,52.30
2018-02-22T01:56:09.074Z,36.37
2018-02-22T02:01:10.227Z,44.20
2018-02-22T02:03:37.632Z,49.13
2018-02-22T02:06:05.049Z,45.53
2018-02-22T02:08:32.466Z,49.70
2018-02-22T02:10:59.906Z,51.30
2018-02-22T02:13:27.449Z,52.08
2018-02-22T02:15:54.876Z,51.83
2018-02-22T02:18:22.284Z,46.10
2018-02-22T02:20:49.705Z,49.77
2018-02-22T02:23:17.122Z,49.10
2018-02-22T02:25:44.545Z,48.00
2018-02-22T02:28:11.958Z,51.20
2018-02-22T02:30:39.374Z,45.27
2018-02-22T02:33:06.785Z,44.55
2018-02-22T02:35:34.207Z,40.83
2018-02-22T02:38:01.618Z,47.03
2018-02-22T02:40:29.038Z,52.05
2018-02-22T02:42:56.448Z,53.33
2018-02-22T02:45:23.875Z,43.60
2018-02-22T02:47:51.287Z,50.70
2018-02-22T02:50:18.692Z,44.80
2018-02-22T02:52:46.118Z,47.53
2018-02-22T02:55:13.537Z,44.95
2018-02-22T02:57:40.958Z,42.90
2018-02-22T03:00:08.376Z,49.20
2018-02-22T03:02:35.805Z,44.53
2018-02-22T03:05:03.213Z,46.83
2018-02-22T03:07:30.642Z,54.00
2018-02-22T03:09:59.088Z,54.28
2018-02-22T03:12:26.856Z,49.87
2018-02-22T03:14:54.266Z,42.67
2018-02-22T03:17:21.689Z,52.03
2018-02-22T03:19:49.109Z,44.40
2018-02-22T03:22:16.532Z,41.53
2018-02-22T03:24:43.943Z,41.33
2018-02-22T03:27:11.375Z,44.55
2018-02-22T03:29:38.781Z,42.80
2018-02-22T03:32:06.206Z,43.67
2018-02-22T03:34:33.621Z,43.60
2018-02-22T03:37:01.042Z,43.50
2018-02-22T03:39:28.455Z,41.13
2018-02-22T03:41:55.877Z,33.53
2018-02-22T03:44:23.289Z,42.73
2018-02-22T03:46:50.705Z,43.27
2018-02-22T03:49:18.123Z,35.03
2018-02-22T03:51:45.533Z,34.10
2018-02-22T03:54:12.944Z,30.43
2018-02-22T03:56:40.366Z,31.30
2018-02-22T03:59:07.778Z,37.23
2018-02-22T04:01:35.201Z,42.42
2018-02-22T04:04:02.621Z,38.40
2018-02-22T04:06:30.819Z,36.88
2018-02-22T04:08:58.225Z,32.33
2018-02-22T04:11:25.644Z,43.33
2018-02-22T04:13:53.048Z,37.77
2018-02-22T04:16:20.469Z,47.37
2018-02-22T04:18:47.873Z,41.13
2018-02-22T04:21:15.309Z,34.30
2018-02-22T04:23:42.716Z,35.90
2018-02-22T04:26:10.130Z,44.27
2018-02-22T04:28:37.553Z,35.23
2018-02-22T04:31:04.957Z,35.03
2018-02-22T04:33:32.382Z,39.87
2018-02-22T04:35:59.802Z,38.03
2018-02-22T04:38:27.214Z,41.60
2018-02-22T04:40:54.623Z,43.40
2018-02-22T04:43:22.035Z,36.03
2018-02-22T04:45:49.444Z,37.60
2018-02-22T04:48:16.861Z,38.97
2018-02-22T04:50:44.277Z,36.33
2018-02-22T04:53:11.697Z,30.63
2018-02-22T04:55:39.108Z,41.80
2018-02-22T04:58:06.533Z,46.08
2018-02-22T05:00:33.945Z,39.57
2018-02-22T05:03:01.360Z,34.87
2018-02-22T05:05:28.767Z,34.60
2018-02-22T05:07:56.205Z,38.70
2018-02-22T05:10:23.617Z,37.97
2018-02-22T05:12:51.039Z,29.80
2018-02-22T05:15:18.452Z,38.67
2018-02-22T05:17:45.864Z,44.50
2018-02-22T05:20:13.284Z,41.10
2018-02-22T05:22:40.701Z,42.97
2018-02-22T05:25:08.112Z,43.03
2018-02-22T05:27:35.540Z,42.05
2018-02-22T05:30:03.766Z,37.70
2018-02-22T05:32:31.184Z,35.47
2018-02-22T05:34:58.602Z,40.70
2018-02-22T05:37:26.032Z,34.37
2018-02-22T05:39:53.451Z,35.70
2018-02-22T05:42:20.860Z,33.60
2018-02-22T05:44:48.270Z,32.53
2018-02-22T05:47:15.689Z,36.50
2018-02-22T05:49:43.098Z,31.00
2018-02-22T05:52:10.530Z,35.00
2018-02-22T05:54:37.936Z,34.07
2018-02-22T05:57:05.348Z,36.53
2018-02-22T05:59:32.768Z,41.23
2018-02-22T06:02:00.186Z,47.57
2018-02-22T06:04:27.607Z,35.53
2018-02-22T06:06:55.018Z,32.03
2018-02-22T06:09:22.437Z,28.23
2018-02-22T06:11:49.857Z,30.13
2018-02-22T06:14:17.283Z,40.97
2018-02-22T06:16:44.701Z,35.43
2018-02-22T06:19:12.129Z,39.50
2018-02-22T06:21:39.541Z,35.55
2018-02-22T06:24:06.967Z,39.50
2018-02-22T06:26:34.375Z,36.00
2018-02-22T06:29:01.801Z,34.93
2018-02-22T06:31:29.237Z,30.30
2018-02-22T06:33:57.069Z,35.57
2018-02-22T06:36:24.477Z,44.60
2018-02-22T06:38:51.917Z,47.37
2018-02-22T06:41:19.324Z,35.23
2018-02-22T06:43:46.745Z,38.13
2018-02-22T06:46:14.160Z,32.37
2018-02-22T06:48:41.581Z,30.90
2018-02-22T06:51:08.994Z,36.87
2018-02-22T06:53:36.809Z,41.00
2018-02-22T06:56:04.243Z,33.37
2018-02-22T06:58:31.664Z,38.05
2018-02-22T07:00:59.083Z,44.53
2018-02-22T07:03:26.504Z,51.57
2018-02-22T07:05:53.917Z,35.30
2018-02-22T07:08:21.336Z,41.50
2018-02-22T07:10:48.748Z,34.20
2018-02-22T07:13:16.165Z,46.03
2018-02-22T07:15:43.580Z,46.90
2018-02-22T07:18:11.004Z,40.57
2018-02-22T07:20:38.421Z,45.37
2018-02-22T07:23:16.650Z,43.03
2018-02-22T07:25:33.257Z,42.03
2018-02-22T07:28:00.669Z,35.73
2018-02-22T07:30:28.094Z,41.90
2018-02-22T07:32:55.503Z,39.07
2018-02-22T07:35:22.923Z,38.57
2018-02-22T07:37:50.330Z,53.97
2018-02-22T07:40:17.745Z,48.10
2018-02-22T07:42:45.152Z,45.90
2018-02-22T07:45:12.570Z,41.60
2018-02-22T07:47:39.989Z,42.80
2018-02-22T07:50:07.406Z,35.37
2018-02-22T07:52:34.831Z,40.28
2018-02-22T07:55:02.250Z,41.60
2018-02-22T07:57:29.658Z,38.43
2018-02-22T07:59:57.083Z,39.00
2018-02-22T08:02:24.489Z,47.90
2018-02-22T08:04:51.921Z,41.47
2018-02-22T08:07:19.334Z,65.03
2018-02-22T08:09:46.757Z,29.60
2018-02-22T08:12:14.165Z,45.17
2018-02-22T08:14:41.586Z,51.40
2018-02-22T08:17:08.996Z,40.53
2018-02-22T08:19:36.416Z,33.43
2018-02-22T08:22:03.821Z,36.73
2018-02-22T08:24:31.236Z,43.83
2018-02-22T08:26:58.649Z,43.80
2018-02-22T08:29:26.068Z,34.97
2018-02-22T08:31:53.490Z,42.40
2018-02-22T08:34:20.936Z,34.17
2018-02-22T08:36:48.354Z,38.17
2018-02-22T08:39:15.799Z,44.70
2018-02-22T08:41:43.182Z,37.73
2018-02-22T08:44:11.290Z,41.67
2018-02-22T08:46:38.705Z,36.70
2018-02-22T08:49:06.130Z,34.00
2018-02-22T08:51:33.541Z,32.87
2018-02-22T08:54:00.972Z,34.30
2018-02-22T08:56:28.391Z,27.40
2018-02-22T08:58:55.802Z,32.35
2018-02-22T09:01:23.217Z,40.43
2018-02-22T09:03:50.633Z,40.67
2018-02-22T09:06:18.060Z,32.10
2018-02-22T09:08:45.493Z,33.00
2018-02-22T09:11:12.898Z,39.67
2018-02-22T09:13:40.317Z,37.03
2018-02-22T09:16:07.740Z,33.37
2018-02-22T09:18:35.149Z,34.37
2018-02-22T09:21:02.574Z,31.95
2018-02-22T09:23:29.990Z,30.80
2018-02-22T09:25:57.411Z,37.47
2018-02-22T09:28:24.861Z,25.30
2018-02-22T09:30:52.269Z,27.93
2018-02-22T09:33:19.681Z,27.23
2018-02-22T09:35:47.102Z,28.30
2018-02-22T09:38:14.516Z,27.93
2018-02-22T09:40:41.932Z,31.57
2018-02-22T09:43:09.329Z,28.50
2018-02-22T09:45:36.746Z,31.48
2018-02-22T09:48:04.155Z,30.63
2018-02-22T09:50:31.572Z,32.20
2018-02-22T09:52:58.976Z,34.65
2018-02-22T09:55:26.400Z,30.53
2018-02-22T09:57:53.813Z,25.93
2018-02-22T10:00:21.228Z,26.97
2018-02-22T10:02:48.635Z,25.20
2018-02-22T10:05:16.058Z,25.30
2018-02-22T10:07:43.477Z,23.93
2018-02-22T10:10:10.900Z,27.05
2018-02-22T10:12:38.304Z,28.83
2018-02-22T10:15:05.721Z,31.60
2018-02-22T10:17:33.124Z,23.37
2018-02-22T10:20:00.545Z,23.60
2018-02-22T10:22:27.937Z,28.03
2018-02-22T10:24:55.354Z,26.00
2018-02-22T10:27:22.762Z,18.15
2018-02-22T10:29:50.189Z,29.77
2018-02-22T10:32:17.592Z,32.07
2018-02-22T10:34:45.005Z,31.73
2018-02-22T10:37:12.413Z,20.50
2018-02-22T10:39:39.822Z,21.53
2018-02-22T10:42:07.237Z,26.93
2018-02-22T10:44:34.641Z,26.93
2018-02-22T10:47:02.061Z,24.07
2018-02-22T10:49:29.465Z,23.37
2018-02-22T10:51:56.890Z,31.65
2018-02-22T10:54:24.306Z,22.57
2018-02-22T10:56:51.709Z,27.13
2018-02-22T10:59:19.134Z,28.00
2018-02-22T11:01:53.153Z,30.17
2018-02-22T11:04:20.562Z,23.07
2018-02-22T11:06:47.977Z,20.67
2018-02-22T11:09:15.398Z,24.97
2018-02-22T11:11:42.814Z,25.33
2018-02-22T11:14:10.221Z,28.67
2018-02-22T11:16:37.634Z,36.30
2018-02-22T11:19:05.046Z,30.43
2018-02-22T11:21:32.458Z,30.77
2018-02-22T11:23:59.875Z,25.43
2018-02-22T11:26:27.291Z,24.67
2018-02-22T11:28:54.696Z,24.87
2018-02-22T11:31:22.117Z,27.70
2018-02-22T11:33:49.528Z,29.80
2018-02-22T11:36:16.957Z,28.80
2018-02-22T11:38:44.361Z,24.57
2018-02-22T11:41:11.776Z,24.30
2018-02-22T11:43:39.184Z,26.13
2018-02-22T11:46:06.598Z,27.80
2018-02-22T11:48:34.000Z,21.77
2018-02-22T11:51:01.420Z,26.83
2018-02-22T11:53:28.833Z,33.70
2018-02-22T11:55:56.249Z,21.10
2018-02-22T11:58:23.658Z,26.63
2018-02-22T12:00:51.076Z,21.80
2018-02-22T12:03:18.489Z,24.50
2018-02-22T12:05:45.902Z,24.00
2018-02-22T12:08:13.309Z,20.20
2018-02-22T12:10:40.715Z,20.60
2018-02-22T12:13:08.136Z,20.97
2018-02-22T12:15:35.542Z,14.73
2018-02-22T12:18:02.957Z,24.47
2018-02-22T12:20:30.365Z,24.70
2018-02-22T12:22:57.776Z,18.50
2018-02-22T12:25:25.190Z,19.57
2018-02-22T12:27:52.600Z,16.37
2018-02-22T12:30:20.022Z,17.87
2018-02-22T12:32:47.430Z,19.83
2018-02-22T12:35:14.828Z,14.47
2018-02-22T12:37:42.240Z,16.57
2018-02-22T12:40:09.650Z,21.60
2018-02-22T12:42:37.063Z,16.20
2018-02-22T12:45:04.466Z,21.23
2018-02-22T12:47:31.893Z,16.00
2018-02-22T12:49:59.298Z,13.60
2018-02-22T12:52:26.718Z,16.85
2018-02-22T12:54:54.114Z,15.03
2018-02-22T12:57:21.530Z,14.33
2018-02-22T12:59:48.925Z,16.00
2018-02-22T13:02:16.344Z,14.70
2018-02-22T13:04:43.754Z,15.17
2018-02-22T13:07:11.158Z,12.00
2018-02-22T13:09:38.553Z,13.07
2018-02-22T13:12:05.975Z,11.67
2018-02-22T13:14:33.374Z,10.60
2018-02-22T13:17:00.779Z,12.57
2018-02-22T13:19:28.173Z,15.83
2018-02-22T13:21:55.586Z,8.70
2018-02-22T13:24:23.593Z,10.93
2018-02-22T13:26:51.009Z,12.70
2018-02-22T13:29:18.402Z,10.83
2018-02-22T13:31:45.817Z,13.33
2018-02-22T13:34:25.085Z,17.90
2018-02-22T13:36:52.497Z,8.47
2018-02-22T13:39:19.892Z,14.82
2018-02-22T13:41:47.310Z,8.17
2018-02-22T13:44:26.582Z,9.37
2018-02-22T13:46:54.267Z,7.12
2018-02-22T13:49:33.458Z,10.70
2018-02-22T13:52:00.864Z,10.23
2018-02-22T13:54:28.271Z,6.63
2018-02-22T13:57:07.321Z,12.77
2018-02-22T13:59:34.717Z,9.80
2018-02-22T14:02:13.915Z,5.40
2018-02-22T14:04:41.318Z,8.63
2018-02-22T14:07:08.721Z,8.47
2018-02-22T14:09:36.116Z,11.70
2018-02-22T14:12:03.524Z,5.73
2018-02-22T14:14:30.925Z,7.25
2018-02-22T14:16:58.342Z,7.20
2018-02-22T14:19:25.732Z,8.40
2018-02-22T14:21:53.138Z,7.33
2018-02-22T14:24:20.550Z,6.83
2018-02-22T14:26:47.953Z,8.20
2018-02-22T14:29:15.358Z,7.35
2018-02-22T14:31:42.754Z,4.70
2018-02-22T14:34:10.157Z,6.23
2018-02-22T14:36:37.560Z,8.10
2018-02-22T14:39:05.669Z,8.67
2018-02-22T14:41:33.066Z,7.90
2018-02-22T14:44:00.474Z,7.50
2018-02-22T14:46:27.877Z,7.35
2018-02-22T14:48:56.042Z,7.87
2018-02-22T14:51:23.454Z,6.00
2018-02-22T14:53:50.859Z,7.50
2018-02-22T14:56:18.261Z,6.77
2018-02-22T14:58:45.667Z,8.37
2018-02-22T15:01:13.069Z,6.70
2018-02-22T15:03:40.480Z,10.70
2018-02-22T15:06:07.876Z,12.03
2018-02-22T15:08:35.295Z,8.60
2018-02-22T15:11:02.709Z,8.73
2018-02-22T15:13:30.105Z,7.03
2018-02-22T15:15:57.510Z,9.13
2018-02-22T15:18:24.904Z,7.77
2018-02-22T15:20:52.353Z,12.17
2018-02-22T15:23:19.727Z,9.27
2018-02-22T15:25:47.191Z,7.90
2018-02-22T15:28:14.545Z,7.60
2018-02-22T15:30:41.955Z,11.10
2018-02-22T15:33:09.370Z,8.97
2018-02-22T15:35:36.775Z,9.83
2018-02-22T15:38:04.185Z,7.70
2018-02-22T15:40:31.584Z,9.27
2018-02-22T15:42:58.989Z,9.20
2018-02-22T15:45:26.400Z,10.60
2018-02-22T15:47:53.810Z,7.30
2018-02-22T15:50:21.223Z,10.07
2018-02-22T15:52:48.617Z,8.10
2018-02-22T15:55:16.031Z,8.80
2018-02-22T15:57:43.442Z,12.13
2018-02-22T16:00:10.844Z,9.93
2018-02-22T16:02:38.237Z,7.00
2018-02-22T16:05:05.645Z,8.80
2018-02-22T16:07:33.049Z,13.00
2018-02-22T16:10:00.456Z,7.70
2018-02-22T16:12:28.525Z,9.43
2018-02-22T16:14:55.929Z,9.60
2018-02-22T16:17:23.337Z,11.37
2018-02-22T16:19:50.745Z,9.40
2018-02-22T16:22:18.153Z,7.87
2018-02-22T16:24:45.557Z,9.50
2018-02-22T16:27:12.962Z,12.02
2018-02-22T16:29:40.369Z,12.93
2018-02-22T16:32:07.773Z,12.27
2018-02-22T16:34:35.186Z,16.85
2018-02-22T16:37:02.612Z,11.30
2018-02-22T16:39:30.026Z,12.10
2018-02-22T16:41:57.429Z,12.83
2018-02-22T16:44:24.842Z,10.20
2018-02-22T16:46:52.249Z,13.00
2018-02-22T16:49:19.673Z,13.43
2018-02-22T16:51:47.073Z,8.60
2018-02-22T16:54:14.485Z,11.97
2018-02-22T16:56:41.891Z,12.30
2018-02-22T16:59:09.311Z,12.82
2018-02-22T17:01:36.709Z,13.37
2018-02-22T17:04:04.117Z,11.57
2018-02-22T17:06:31.522Z,10.90
2018-02-22T17:08:58.928Z,9.80
2018-02-22T17:11:26.328Z,13.07
2018-02-22T17:13:53.734Z,12.90
2018-02-22T17:16:21.129Z,12.03
2018-02-22T17:18:48.550Z,14.85
2018-02-22T17:21:15.953Z,13.77
2018-02-22T17:23:43.353Z,16.43
2018-02-22T17:26:16.272Z,12.53
2018-02-22T17:28:49.328Z,12.60
2018-02-22T17:31:22.237Z,15.53
2018-02-22T17:33:49.634Z,16.50
2018-02-22T17:39:29.986Z,20.52
2018-02-22T17:41:57.382Z,14.50
2018-02-22T17:44:24.799Z,14.03
2018-02-22T17:46:52.597Z,14.57
2018-02-22T17:49:20.005Z,13.37
2018-02-22T17:51:47.409Z,14.43
2018-02-22T17:54:14.816Z,12.80
2018-02-22T17:56:42.227Z,13.33
2018-02-22T17:59:09.621Z,10.73
2018-02-22T18:01:37.029Z,14.30
2018-02-22T18:04:04.434Z,17.93
2018-02-22T18:06:32.258Z,15.13
2018-02-22T18:08:59.671Z,16.47
2018-02-22T18:11:27.082Z,14.67
2018-02-22T18:13:54.483Z,14.40
2018-02-22T18:16:21.899Z,15.53
2018-02-22T18:18:49.293Z,14.07
2018-02-22T18:21:16.702Z,11.70
2018-02-22T18:23:44.110Z,15.30
2018-02-22T18:26:11.519Z,13.73
2018-02-22T18:28:38.918Z,10.30
2018-02-22T18:31:06.333Z,15.30
2018-02-22T18:33:33.732Z,12.50
2018-02-22T18:36:01.141Z,13.23
2018-02-22T18:38:28.572Z,16.73
2018-02-22T18:40:59.761Z,16.63
2018-02-22T18:43:32.737Z,10.30
2018-02-22T18:46:00.150Z,13.10
2018-02-22T18:48:27.552Z,11.73
2018-02-22T18:50:54.968Z,10.23
2018-02-22T18:53:22.374Z,12.90
2018-02-22T18:55:49.791Z,12.10
2018-02-22T18:58:17.185Z,17.13
2018-02-22T19:00:44.596Z,15.43
2018-02-22T19:03:11.997Z,11.82
2018-02-22T19:05:39.419Z,15.43
2018-02-22T19:08:06.823Z,12.27
2018-02-22T19:10:34.569Z,14.68
2018-02-22T19:13:01.965Z,14.23
2018-02-22T19:15:29.377Z,11.37
2018-02-22T19:17:56.787Z,12.90
2018-02-22T19:20:24.196Z,16.93
2018-02-22T19:22:51.600Z,11.80
2018-02-22T19:25:19.009Z,19.07
2018-02-22T19:27:46.413Z,11.73
2018-02-22T19:30:13.825Z,14.93
2018-02-22T19:32:41.230Z,14.60
2018-02-22T19:35:08.640Z,13.60
2018-02-22T19:37:36.040Z,15.73
2018-02-22T19:40:03.448Z,15.13
2018-02-22T19:42:30.866Z,16.90
2018-02-22T19:44:58.276Z,15.97
2018-02-22T19:47:25.691Z,12.20
2018-02-22T19:49:53.739Z,16.23
2018-02-22T19:52:21.150Z,17.63
2018-02-22T19:54:48.583Z,12.87
2018-02-22T19:57:15.963Z,17.43
2018-02-22T19:59:43.368Z,17.63
2018-02-22T20:02:11.450Z,14.57
2018-02-22T20:04:38.848Z,10.70
2018-02-22T20:07:06.705Z,16.40
2018-02-22T20:09:34.116Z,15.63
2018-02-22T20:12:01.532Z,18.00
2018-02-22T20:14:28.934Z,17.48
2018-02-22T20:16:56.352Z,13.37
2018-02-22T20:19:23.746Z,22.10
2018-02-22T20:21:51.162Z,12.77
2018-02-22T20:24:18.565Z,19.17
2018-02-22T20:26:45.990Z,14.73
2018-02-22T20:29:13.388Z,18.95
2018-02-22T20:31:40.799Z,13.27
2018-02-22T20:34:08.205Z,16.40
2018-02-22T20:36:35.616Z,12.83
2018-02-22T20:39:03.007Z,20.30
2018-02-22T20:41:30.425Z,21.83
2018-02-22T20:43:57.882Z,18.40
2018-02-22T20:46:25.236Z,17.87
2018-02-22T20:48:52.640Z,11.83
2018-02-22T20:51:23.549Z,16.77
2018-02-22T20:53:50.953Z,16.67
2018-02-22T20:56:18.366Z,14.00
2018-02-22T20:58:45.773Z,15.07
2018-02-22T21:01:13.188Z,12.03
2018-02-22T21:03:40.598Z,19.13
2018-02-22T21:06:08.009Z,14.73
2018-02-22T21:08:35.419Z,20.57
2018-02-22T21:11:02.824Z,15.03
2018-02-22T21:13:30.244Z,16.80
2018-02-22T21:15:57.662Z,17.30
2018-02-22T21:18:25.072Z,16.33
2018-02-22T21:20:52.484Z,18.08
2018-02-22T21:23:19.902Z,19.33
2018-02-22T21:25:47.318Z,18.77
2018-02-22T21:28:14.737Z,18.12
2018-02-22T21:30:42.150Z,16.60
2018-02-22T21:33:10.192Z,19.42
2018-02-22T21:35:37.597Z,18.87
2018-02-22T21:38:05.014Z,16.50
2018-02-22T21:40:32.421Z,19.23
2018-02-22T21:42:59.844Z,15.47
2018-02-22T21:45:27.242Z,13.57
2018-02-22T21:47:54.702Z,16.30
2018-02-22T21:50:22.085Z,17.03
2018-02-22T21:52:49.503Z,16.13
2018-02-22T21:55:16.920Z,17.23
2018-02-22T21:57:44.343Z,21.00
2018-02-22T22:02:37.762Z,16.60
2018-02-22T22:05:05.205Z,16.90
2018-02-22T22:07:32.635Z,16.90
2018-02-22T22:10:00.071Z,15.57
2018-02-22T22:12:27.503Z,13.23
2018-02-22T22:14:54.913Z,11.80
2018-02-22T22:17:22.337Z,20.43
2018-02-22T22:19:49.749Z,16.30
2018-02-22T22:22:17.214Z,16.58
2018-02-22T22:24:44.645Z,14.97
2018-02-22T22:27:12.597Z,18.30
2018-02-22T22:29:40.049Z,14.97
2018-02-22T22:32:07.494Z,13.33
2018-02-22T22:34:34.921Z,16.40
2018-02-22T22:37:02.342Z,13.27
2018-02-22T22:39:29.765Z,14.93
2018-02-22T22:41:57.827Z,18.10
2018-02-22T22:44:25.251Z,14.70
2018-02-22T22:46:52.671Z,14.50
2018-02-22T22:49:20.088Z,12.43
2018-02-22T22:51:47.494Z,16.42
2018-02-22T22:54:14.912Z,15.30
2018-02-22T22:56:42.336Z,15.10
2018-02-22T22:59:09.761Z,22.57
2018-02-22T23:01:37.178Z,21.40
2018-02-22T23:04:04.617Z,16.87
2018-02-22T23:06:32.040Z,18.52
2018-02-22T23:08:59.457Z,15.30
2018-02-22T23:11:26.870Z,13.53
2018-02-22T23:13:54.301Z,18.57
2018-02-22T23:16:21.709Z,16.60
2018-02-22T23:18:49.130Z,15.17
2018-02-22T23:21:16.550Z,16.30
2018-02-22T23:23:44.024Z,14.25
2018-02-22T23:26:11.490Z,18.07
2018-02-22T23:28:38.914Z,15.40
2018-02-22T23:31:06.385Z,14.95
2018-02-22T23:33:33.816Z,19.00
2018-02-22T23:36:01.249Z,11.60
2018-02-22T23:38:28.654Z,9.52
2018-02-22T23:41:01.706Z,13.53
2018-02-22T23:43:29.125Z,14.30
2018-02-22T23:45:56.542Z,14.57
2018-02-22T23:48:23.962Z,18.70
2018-02-22T23:50:51.378Z,13.83
2018-02-22T23:53:18.805Z,16.03
2018-02-22T23:55:46.615Z,18.35
2018-02-22T23:58:14.087Z,16.03
